UAL1165 KBOS-KEWR
Flight info
| Callsign | UAL1165 |
|---|---|
| Flight time | 0h 47m |
| Altitude | 16000 |
| Route | PATSS7 PATSS NELIE FLOSI4 |
| Aircraft | B789/H-SDE1E2E3FGHIJ2J3J4J5M1RWXY/LB1D1 |
Departure
| Time | 2026-05-04 23:15 |
|---|---|
| Airport | Boston Logan International Airport (KBOS) |
Arrival
| Time | 2026-05-05 00:02 |
|---|---|
| Airport | Newark Liberty International Airport (KEWR) |
| Time | Latitude | Longitude | Altitude | Speed | Heading |
|---|---|---|---|---|---|
| 2026-05-04 22:29 | 42.36498 | -71.01431 | 16 ft | 0 kts | 324° |
| 2026-05-04 23:01 | 42.36496 | -71.01428 | 13 ft | 2 kts | 324° |
| 2026-05-04 23:02 | 42.36482 | -71.01415 | 27 ft | 2 kts | 327° |
| 2026-05-04 23:02 | 42.36468 | -71.01404 | 26 ft | 2 kts | 331° |
| 2026-05-04 23:02 | 42.36453 | -71.01394 | 27 ft | 2 kts | 339° |
| 2026-05-04 23:02 | 42.36437 | -71.01388 | 26 ft | 2 kts | 352° |
| 2026-05-04 23:03 | 42.36420 | -71.01389 | 26 ft | 2 kts | 14° |
| 2026-05-04 23:03 | 42.36407 | -71.01396 | 25 ft | 1 kts | 23° |
| 2026-05-04 23:03 | 42.36404 | -71.01397 | 25 ft | 0 kts | 22° |
| 2026-05-04 23:06 | 42.36411 | -71.01394 | 24 ft | 4 kts | 22° |
| 2026-05-04 23:06 | 42.36455 | -71.01369 | 26 ft | 10 kts | 22° |
| 2026-05-04 23:07 | 42.36541 | -71.01319 | 20 ft | 17 kts | 25° |
| 2026-05-04 23:07 | 42.36582 | -71.01272 | 21 ft | 1 kts | 84° |
| 2026-05-04 23:07 | 42.36581 | -71.01241 | 21 ft | 7 kts | 84° |
| 2026-05-04 23:07 | 42.36600 | -71.01205 | 23 ft | 4 kts | 33° |
| 2026-05-04 23:08 | 42.36655 | -71.01173 | 26 ft | 12 kts | 15° |
| 2026-05-04 23:08 | 42.36774 | -71.01144 | 20 ft | 22 kts | 348° |
| 2026-05-04 23:08 | 42.36895 | -71.01236 | 18 ft | 16 kts | 1° |
| 2026-05-04 23:08 | 42.36972 | -71.01133 | 21 ft | 20 kts | 53° |
| 2026-05-04 23:09 | 42.37121 | -71.01020 | 17 ft | 30 kts | 26° |
| 2026-05-04 23:09 | 42.37372 | -71.00868 | 15 ft | 52 kts | 20° |
| 2026-05-04 23:09 | 42.37597 | -71.00761 | 23 ft | 14 kts | 19° |
| 2026-05-04 23:09 | 42.37682 | -71.00720 | 30 ft | 12 kts | 19° |
| 2026-05-04 23:10 | 42.37752 | -71.00684 | 28 ft | 10 kts | 21° |
| 2026-05-04 23:10 | 42.37820 | -71.00650 | 29 ft | 10 kts | 27° |
| 2026-05-04 23:10 | 42.37837 | -71.00621 | 28 ft | 4 kts | 63° |
| 2026-05-04 23:10 | 42.37840 | -71.00600 | 28 ft | 1 kts | 86° |
| 2026-05-04 23:11 | 42.37835 | -71.00570 | 28 ft | 14 kts | 105° |
| 2026-05-04 23:11 | 42.37796 | -71.00475 | 30 ft | 3 kts | 155° |
| 2026-05-04 23:11 | 42.37790 | -71.00476 | 30 ft | 1 kts | 185° |
| 2026-05-04 23:11 | 42.37755 | -71.00488 | 29 ft | 8 kts | 200° |
| 2026-05-04 23:12 | 42.37752 | -71.00490 | 29 ft | 0 kts | 200° |
| 2026-05-04 23:14 | 42.37697 | -71.00517 | 29 ft | 25 kts | 200° |
| 2026-05-04 23:15 | 42.37333 | -71.00694 | 17 ft | 87 kts | 200° |
| 2026-05-04 23:15 | 42.36584 | -71.01057 | 26 ft | 139 kts | 200° |
| 2026-05-04 23:15 | 42.35603 | -71.01547 | 432 ft | 150 kts | 197° |
| 2026-05-04 23:15 | 42.34628 | -71.02086 | 1153 ft | 158 kts | 210° |
| 2026-05-04 23:16 | 42.33447 | -71.02301 | 1501 ft | 192 kts | 167° |
| 2026-05-04 23:16 | 42.32421 | -71.01078 | 2022 ft | 220 kts | 121° |
| 2026-05-04 23:16 | 42.31904 | -70.99039 | 2474 ft | 234 kts | 108° |
| 2026-05-04 23:16 | 42.31427 | -70.96936 | 3278 ft | 236 kts | 103° |
| 2026-05-04 23:17 | 42.31279 | -70.94712 | 3819 ft | 251 kts | 83° |
| 2026-05-04 23:17 | 42.31581 | -70.92350 | 4517 ft | 255 kts | 75° |
| 2026-05-04 23:17 | 42.31966 | -70.89998 | 5294 ft | 258 kts | 74° |
| 2026-05-04 23:17 | 42.32338 | -70.87521 | 5716 ft | 283 kts | 76° |
| 2026-05-04 23:18 | 42.32702 | -70.84840 | 6561 ft | 289 kts | 76° |
| 2026-05-04 23:18 | 42.33061 | -70.82155 | 7514 ft | 293 kts | 78° |
| 2026-05-04 23:18 | 42.32914 | -70.79389 | 8388 ft | 302 kts | 106° |
| 2026-05-04 23:18 | 42.32055 | -70.76774 | 9253 ft | 308 kts | 117° |
| 2026-05-04 23:19 | 42.30971 | -70.74274 | 10113 ft | 311 kts | 129° |
| 2026-05-04 23:19 | 42.29265 | -70.72420 | 10635 ft | 321 kts | 158° |
| 2026-05-04 23:19 | 42.27165 | -70.71692 | 11500 ft | 313 kts | 184° |
| 2026-05-04 23:19 | 42.24990 | -70.72018 | 12280 ft | 313 kts | 195° |
| 2026-05-04 23:20 | 42.22870 | -70.72537 | 13162 ft | 315 kts | 197° |
| 2026-05-04 23:20 | 42.20869 | -70.73554 | 13966 ft | 309 kts | 217° |
| 2026-05-04 23:20 | 42.19250 | -70.75470 | 14146 ft | 306 kts | 237° |
| 2026-05-04 23:20 | 42.18216 | -70.78020 | 14188 ft | 319 kts | 256° |
| 2026-05-04 23:21 | 42.17723 | -70.81038 | 14254 ft | 342 kts | 262° |
| 2026-05-04 23:21 | 42.17292 | -70.84308 | 14510 ft | 359 kts | 263° |
| 2026-05-04 23:21 | 42.16860 | -70.87629 | 15328 ft | 360 kts | 262° |
| 2026-05-04 23:21 | 42.16407 | -70.90932 | 15947 ft | 366 kts | 262° |
| 2026-05-04 23:22 | 42.15940 | -70.94370 | 16038 ft | 373 kts | 264° |
| 2026-05-04 23:22 | 42.15650 | -70.97812 | 16030 ft | 367 kts | 265° |
| 2026-05-04 23:22 | 42.15342 | -71.01230 | 16038 ft | 368 kts | 265° |
| 2026-05-04 23:22 | 42.15029 | -71.04652 | 16030 ft | 367 kts | 265° |
| 2026-05-04 23:23 | 42.14724 | -71.08067 | 16031 ft | 367 kts | 265° |
| 2026-05-04 23:23 | 42.14421 | -71.11487 | 16033 ft | 367 kts | 265° |
| 2026-05-04 23:23 | 42.14116 | -71.14872 | 16031 ft | 367 kts | 265° |
| 2026-05-04 23:23 | 42.13806 | -71.18298 | 16021 ft | 367 kts | 265° |
| 2026-05-04 23:24 | 42.13495 | -71.21719 | 16019 ft | 367 kts | 265° |
| 2026-05-04 23:24 | 42.13186 | -71.25136 | 16024 ft | 368 kts | 265° |
| 2026-05-04 23:24 | 42.12873 | -71.28564 | 16020 ft | 368 kts | 265° |
| 2026-05-04 23:24 | 42.12563 | -71.31946 | 16023 ft | 367 kts | 265° |
| 2026-05-04 23:25 | 42.12250 | -71.35364 | 16024 ft | 368 kts | 265° |
| 2026-05-04 23:25 | 42.11933 | -71.38808 | 16022 ft | 371 kts | 265° |
| 2026-05-04 23:25 | 42.11614 | -71.42251 | 16024 ft | 370 kts | 265° |
| 2026-05-04 23:25 | 42.11298 | -71.45651 | 16044 ft | 364 kts | 265° |
| 2026-05-04 23:26 | 42.10980 | -71.49077 | 16041 ft | 367 kts | 265° |
| 2026-05-04 23:26 | 42.10663 | -71.52472 | 16038 ft | 366 kts | 265° |
| 2026-05-04 23:26 | 42.10343 | -71.55894 | 16043 ft | 369 kts | 265° |
| 2026-05-04 23:26 | 42.10025 | -71.59283 | 16045 ft | 369 kts | 265° |
| 2026-05-04 23:27 | 42.09701 | -71.62706 | 16049 ft | 369 kts | 265° |
| 2026-05-04 23:27 | 42.09376 | -71.66143 | 16039 ft | 369 kts | 265° |
| 2026-05-04 23:27 | 42.09051 | -71.69575 | 16030 ft | 369 kts | 265° |
| 2026-05-04 23:27 | 42.08628 | -71.72979 | 16021 ft | 370 kts | 260° |
| 2026-05-04 23:28 | 42.08116 | -71.76387 | 16027 ft | 372 kts | 261° |
| 2026-05-04 23:28 | 42.07614 | -71.79887 | 16034 ft | 390 kts | 261° |
| 2026-05-04 23:28 | 42.07077 | -71.83565 | 16037 ft | 410 kts | 261° |
| 2026-05-04 23:28 | 42.06508 | -71.87352 | 16038 ft | 414 kts | 261° |
| 2026-05-04 23:29 | 42.05934 | -71.91175 | 16033 ft | 418 kts | 261° |
| 2026-05-04 23:29 | 42.05367 | -71.95001 | 16034 ft | 417 kts | 261° |
| 2026-05-04 23:29 | 42.04799 | -71.98829 | 16036 ft | 418 kts | 261° |
| 2026-05-04 23:29 | 42.04224 | -72.02664 | 16032 ft | 418 kts | 261° |
| 2026-05-04 23:30 | 42.03648 | -72.06494 | 16034 ft | 418 kts | 261° |
| 2026-05-04 23:30 | 42.03079 | -72.10280 | 16034 ft | 418 kts | 261° |
| 2026-05-04 23:30 | 42.02502 | -72.14114 | 16049 ft | 418 kts | 261° |
| 2026-05-04 23:30 | 42.01923 | -72.17949 | 16039 ft | 417 kts | 261° |
| 2026-05-04 23:31 | 42.01344 | -72.21770 | 16045 ft | 417 kts | 261° |
| 2026-05-04 23:31 | 42.00762 | -72.25599 | 16043 ft | 417 kts | 261° |
| 2026-05-04 23:31 | 42.00181 | -72.29425 | 16004 ft | 417 kts | 261° |
| 2026-05-04 23:31 | 41.99597 | -72.33253 | 15994 ft | 417 kts | 261° |
| 2026-05-04 23:32 | 41.99020 | -72.37028 | 15989 ft | 417 kts | 261° |
| 2026-05-04 23:32 | 41.98436 | -72.40840 | 16006 ft | 417 kts | 261° |
| 2026-05-04 23:32 | 41.97849 | -72.44663 | 16005 ft | 417 kts | 260° |
| 2026-05-04 23:32 | 41.97262 | -72.48476 | 16005 ft | 418 kts | 260° |
| 2026-05-04 23:33 | 41.96671 | -72.52305 | 15973 ft | 413 kts | 260° |
| 2026-05-04 23:33 | 41.96094 | -72.56024 | 15962 ft | 401 kts | 260° |
| 2026-05-04 23:33 | 41.95533 | -72.59642 | 15953 ft | 391 kts | 261° |
| 2026-05-04 23:33 | 41.94985 | -72.63175 | 15922 ft | 382 kts | 261° |
| 2026-05-04 23:34 | 41.94448 | -72.66629 | 15899 ft | 374 kts | 261° |
| 2026-05-04 23:34 | 41.93843 | -72.70000 | 15809 ft | 370 kts | 255° |
| 2026-05-04 23:34 | 41.93038 | -72.73286 | 15554 ft | 370 kts | 255° |
| 2026-05-04 23:34 | 41.92274 | -72.76532 | 15351 ft | 368 kts | 255° |
| 2026-05-04 23:35 | 41.91503 | -72.79804 | 15164 ft | 367 kts | 255° |
| 2026-05-04 23:35 | 41.90722 | -72.83070 | 14978 ft | 366 kts | 255° |
| 2026-05-04 23:35 | 41.89942 | -72.86323 | 14785 ft | 365 kts | 255° |
| 2026-05-04 23:35 | 41.89166 | -72.89570 | 14607 ft | 364 kts | 255° |
| 2026-05-04 23:36 | 41.88393 | -72.92804 | 14426 ft | 363 kts | 255° |
| 2026-05-04 23:36 | 41.87619 | -72.96028 | 14254 ft | 362 kts | 255° |
| 2026-05-04 23:36 | 41.86847 | -72.99242 | 14096 ft | 362 kts | 255° |
| 2026-05-04 23:36 | 41.86077 | -73.02446 | 13935 ft | 361 kts | 255° |
| 2026-05-04 23:37 | 41.85307 | -73.05644 | 13785 ft | 360 kts | 255° |
| 2026-05-04 23:37 | 41.84537 | -73.08834 | 13628 ft | 359 kts | 255° |
| 2026-05-04 23:37 | 41.83769 | -73.12017 | 13467 ft | 358 kts | 255° |
| 2026-05-04 23:37 | 41.82997 | -73.15214 | 12873 ft | 366 kts | 255° |
| 2026-05-04 23:38 | 41.82190 | -73.18559 | 12077 ft | 381 kts | 255° |
| 2026-05-04 23:38 | 41.81376 | -73.21896 | 12086 ft | 372 kts | 255° |
| 2026-05-04 23:38 | 41.80589 | -73.25123 | 12090 ft | 365 kts | 255° |
| 2026-05-04 23:38 | 41.79810 | -73.28340 | 12091 ft | 359 kts | 255° |
| 2026-05-04 23:39 | 41.79043 | -73.31494 | 12072 ft | 354 kts | 255° |
| 2026-05-04 23:39 | 41.78283 | -73.34610 | 12023 ft | 350 kts | 255° |
| 2026-05-04 23:39 | 41.77771 | -73.36703 | 11928 ft | 350 kts | 255° |
| 2026-05-04 23:39 | 41.77025 | -73.39758 | 11804 ft | 349 kts | 255° |
| 2026-05-04 23:40 | 41.76269 | -73.42850 | 11681 ft | 349 kts | 255° |
| 2026-05-04 23:40 | 41.75513 | -73.45930 | 11548 ft | 349 kts | 255° |
| 2026-05-04 23:40 | 41.74755 | -73.49022 | 11422 ft | 348 kts | 255° |
| 2026-05-04 23:40 | 41.74000 | -73.52094 | 11293 ft | 347 kts | 255° |
| 2026-05-04 23:41 | 41.73243 | -73.55173 | 11176 ft | 347 kts | 255° |
| 2026-05-04 23:41 | 41.72488 | -73.58237 | 11045 ft | 346 kts | 255° |
| 2026-05-04 23:41 | 41.71737 | -73.61281 | 10978 ft | 345 kts | 255° |
| 2026-05-04 23:41 | 41.70983 | -73.64336 | 10818 ft | 346 kts | 255° |
| 2026-05-04 23:42 | 41.70229 | -73.67387 | 10734 ft | 344 kts | 254° |
| 2026-05-04 23:42 | 41.69473 | -73.70437 | 10612 ft | 345 kts | 254° |
| 2026-05-04 23:42 | 41.68728 | -73.73438 | 10531 ft | 344 kts | 255° |
| 2026-05-04 23:42 | 41.67974 | -73.76478 | 10419 ft | 344 kts | 254° |
| 2026-05-04 23:43 | 41.67227 | -73.79478 | 9990 ft | 334 kts | 255° |
| 2026-05-04 23:43 | 41.66486 | -73.82468 | 8818 ft | 345 kts | 254° |
| 2026-05-04 23:43 | 41.65753 | -73.85500 | 8854 ft | 341 kts | 255° |
| 2026-05-04 23:43 | 41.65058 | -73.88516 | 8846 ft | 338 kts | 255° |
| 2026-05-04 23:44 | 41.64361 | -73.91508 | 8830 ft | 336 kts | 255° |
| 2026-05-04 23:44 | 41.63660 | -73.94454 | 8107 ft | 339 kts | 254° |
| 2026-05-04 23:44 | 41.62945 | -73.97455 | 8096 ft | 338 kts | 255° |
| 2026-05-04 23:44 | 41.62235 | -74.00443 | 8089 ft | 335 kts | 255° |
| 2026-05-04 23:45 | 41.61532 | -74.03405 | 8086 ft | 334 kts | 255° |
| 2026-05-04 23:45 | 41.60838 | -74.06328 | 8021 ft | 334 kts | 255° |
| 2026-05-04 23:45 | 41.60135 | -74.09280 | 8012 ft | 337 kts | 255° |
| 2026-05-04 23:45 | 41.59415 | -74.12304 | 8012 ft | 341 kts | 254° |
| 2026-05-04 23:46 | 41.58684 | -74.15362 | 8036 ft | 352 kts | 254° |
| 2026-05-04 23:46 | 41.57934 | -74.18501 | 8058 ft | 362 kts | 254° |
| 2026-05-04 23:46 | 41.57178 | -74.21649 | 8062 ft | 347 kts | 254° |
| 2026-05-04 23:46 | 41.56456 | -74.24653 | 8054 ft | 331 kts | 254° |
| 2026-05-04 23:47 | 41.55768 | -74.27521 | 8047 ft | 317 kts | 255° |
| 2026-05-04 23:47 | 41.55044 | -74.30234 | 8026 ft | 306 kts | 246° |
| 2026-05-04 23:47 | 41.53824 | -74.32521 | 8019 ft | 305 kts | 229° |
| 2026-05-04 23:47 | 41.52198 | -74.34170 | 7900 ft | 286 kts | 212° |
| 2026-05-04 23:48 | 41.50399 | -74.35119 | 7543 ft | 271 kts | 204° |
| 2026-05-04 23:48 | 41.48510 | -74.35962 | 6430 ft | 304 kts | 202° |
| 2026-05-04 23:48 | 41.46435 | -74.36840 | 5983 ft | 319 kts | 201° |
| 2026-05-04 23:48 | 41.44296 | -74.37747 | 5989 ft | 329 kts | 201° |
| 2026-05-04 23:49 | 41.42101 | -74.38695 | 5988 ft | 332 kts | 201° |
| 2026-05-04 23:49 | 41.39905 | -74.39645 | 5981 ft | 327 kts | 201° |
| 2026-05-04 23:49 | 41.37821 | -74.40533 | 5993 ft | 303 kts | 201° |
| 2026-05-04 23:49 | 41.35879 | -74.41365 | 5970 ft | 281 kts | 202° |
| 2026-05-04 23:50 | 41.34074 | -74.42142 | 5976 ft | 266 kts | 202° |
| 2026-05-04 23:50 | 41.32311 | -74.42907 | 5969 ft | 269 kts | 202° |
| 2026-05-04 23:50 | 41.30525 | -74.43608 | 5934 ft | 269 kts | 192° |
| 2026-05-04 23:50 | 41.28683 | -74.43180 | 5999 ft | 275 kts | 159° |
| 2026-05-04 23:51 | 41.27039 | -74.41887 | 5988 ft | 280 kts | 150° |
| 2026-05-04 23:51 | 41.25437 | -74.40381 | 5984 ft | 281 kts | 148° |
| 2026-05-04 23:51 | 41.23860 | -74.38841 | 5986 ft | 282 kts | 147° |
| 2026-05-04 23:51 | 41.22274 | -74.37283 | 5984 ft | 281 kts | 147° |
| 2026-05-04 23:52 | 41.20709 | -74.35746 | 5990 ft | 280 kts | 147° |
| 2026-05-04 23:52 | 41.19138 | -74.34206 | 5991 ft | 282 kts | 147° |
| 2026-05-04 23:52 | 41.17568 | -74.32666 | 5988 ft | 284 kts | 147° |
| 2026-05-04 23:52 | 41.15966 | -74.31094 | 5987 ft | 281 kts | 147° |
| 2026-05-04 23:53 | 41.14410 | -74.29574 | 6001 ft | 283 kts | 147° |
| 2026-05-04 23:53 | 41.12841 | -74.28036 | 5983 ft | 273 kts | 148° |
| 2026-05-04 23:53 | 41.11340 | -74.26551 | 5997 ft | 264 kts | 147° |
| 2026-05-04 23:53 | 41.09855 | -74.25083 | 6005 ft | 274 kts | 148° |
| 2026-05-04 23:54 | 41.08295 | -74.23550 | 5926 ft | 278 kts | 147° |
| 2026-05-04 23:54 | 41.06740 | -74.22017 | 5474 ft | 276 kts | 148° |
| 2026-05-04 23:54 | 41.05265 | -74.20555 | 5605 ft | 263 kts | 147° |
| 2026-05-04 23:54 | 41.03809 | -74.19111 | 5578 ft | 264 kts | 147° |
| 2026-05-04 23:55 | 41.02322 | -74.17634 | 5580 ft | 262 kts | 148° |
| 2026-05-04 23:55 | 41.00937 | -74.16230 | 5558 ft | 243 kts | 147° |
| 2026-05-04 23:55 | 40.98088 | -74.13259 | 4962 ft | 270 kts | 146° |
| 2026-05-04 23:56 | 40.96553 | -74.11761 | 4557 ft | 264 kts | 149° |
| 2026-05-04 23:56 | 40.95233 | -74.10499 | 5342 ft | 211 kts | 150° |
| 2026-05-04 23:56 | 40.94026 | -74.09368 | 4746 ft | 221 kts | 156° |
| 2026-05-04 23:56 | 40.92451 | -74.09016 | 3928 ft | 242 kts | 192° |
| 2026-05-04 23:57 | 40.90848 | -74.09191 | 3953 ft | 224 kts | 184° |
| 2026-05-04 23:57 | 40.89330 | -74.08979 | 3942 ft | 214 kts | 174° |
| 2026-05-04 23:57 | 40.87791 | -74.08511 | 3952 ft | 232 kts | 171° |
| 2026-05-04 23:57 | 40.86298 | -74.08030 | 3908 ft | 207 kts | 172° |
| 2026-05-04 23:58 | 40.84928 | -74.07630 | 3863 ft | 192 kts | 173° |
| 2026-05-04 23:58 | 40.83741 | -74.07423 | 3775 ft | 157 kts | 186° |
| 2026-05-04 23:58 | 40.82677 | -74.07793 | 2804 ft | 165 kts | 209° |
| 2026-05-04 23:58 | 40.81742 | -74.08467 | 2545 ft | 146 kts | 210° |
| 2026-05-04 23:59 | 40.80854 | -74.09062 | 2362 ft | 141 kts | 210° |
| 2026-05-04 23:59 | 40.79972 | -74.09630 | 2168 ft | 141 kts | 209° |
| 2026-05-04 23:59 | 40.79091 | -74.10193 | 1973 ft | 140 kts | 208° |
| 2026-05-04 23:59 | 40.78216 | -74.10750 | 1791 ft | 140 kts | 208° |
| 2026-05-05 00:00 | 40.77331 | -74.11314 | 1608 ft | 142 kts | 208° |
| 2026-05-05 00:00 | 40.77030 | -74.11508 | 1565 ft | 143 kts | 208° |
| 2026-05-05 00:00 | 40.75550 | -74.12449 | 1260 ft | 143 kts | 207° |
| 2026-05-05 00:00 | 40.74680 | -74.13015 | 1063 ft | 136 kts | 207° |
| 2026-05-05 00:01 | 40.73795 | -74.13579 | 882 ft | 145 kts | 207° |
| 2026-05-05 00:01 | 40.72905 | -74.14144 | 704 ft | 143 kts | 207° |
| 2026-05-05 00:01 | 40.72020 | -74.14705 | 516 ft | 137 kts | 208° |
| 2026-05-05 00:01 | 40.71163 | -74.15268 | 322 ft | 140 kts | 211° |
| 2026-05-05 00:02 | 40.70286 | -74.15821 | 147 ft | 133 kts | 205° |
| 2026-05-05 00:02 | 40.69485 | -74.16335 | 30 ft | 116 kts | 206° |
| 2026-05-05 00:02 | 40.68968 | -74.16659 | 29 ft | 54 kts | 205° |
| 2026-05-05 00:02 | 40.68710 | -74.16932 | 30 ft | 43 kts | 234° |
| 2026-05-05 00:03 | 40.68631 | -74.17085 | 29 ft | 0 kts | 235° |
| 2026-05-05 00:03 | 40.68626 | -74.17097 | 29 ft | 6 kts | 245° |
| 2026-05-05 00:03 | 40.68637 | -74.17179 | 26 ft | 12 kts | 296° |
| 2026-05-05 00:04 | 40.68716 | -74.17408 | 29 ft | 37 kts | 285° |
| 2026-05-05 00:04 | 40.68749 | -74.17602 | 27 ft | 0 kts | 308° |